Quick Links (Output Below):   Max & Min Temps   /   Climate Reports   /   Zone Forecasts
River Forecasts   /   Forestry Forecasts   /   Aviation Forecasts   /   Radars   /   Features

Terminal Aerodrome Forecast (Highfill)

Pick a Site:
Arkadelphia | El Dorado | Fayetteville | Fort Smith | Harrison | Highfill | Hot Springs | Jonesboro
Little Rock | Monticello | Mountain Home | Pine Bluff | Texarkana
 Forecast 

KXNA 290520Z 2906/3006 19011KT P6SM SCT250
     FM291400 20015G25KT P6SM SKC
     FM300000 20012KT P6SM FEW250=


 Latest METARs (Observations) 
How to Decode METARs
05Z KXNA 290453Z AUTO 19012KT 10SM CLR 12/07 A2990 RMK AO2 SLP121
         T01170067
         
04Z KXNA 290353Z 19013KT 10SM CLR 12/06 A2992 RMK AO2 SLP129
         T01170056
         
03Z KXNA 290253Z 19013KT 10SM CLR 12/05 A2993 RMK AO2 SLP132 T01220050
         50001
         
02Z KXNA 290153Z 19011KT 10SM CLR 13/04 A2993 RMK AO2 SLP133
         T01280044
         
01Z KXNA 290053Z 19014KT 10SM CLR 13/04 A2992 RMK AO2 SLP134
         T01280039
         
00Z KXNA 282353Z 19012KT 10SM CLR 13/03 A2992 RMK AO2 SLP134 T01280033
         10156 20128 56009
         
***** Today's Observations (Above) *****


23Z KXNA 282253Z 18010KT 10SM CLR 14/03 A2992 RMK AO2 SLP134
         T01390033
         
22Z KXNA 282153Z 19015KT 10SM CLR 15/03 A2993 RMK AO2 SLP138
         T01500028
         
21Z KXNA 282053Z 19015KT 10SM CLR 16/02 A2995 RMK AO2 SLP143 T01560022
         56037
         
20Z KXNA 281953Z 20018G24KT 10SM CLR 15/02 A2998 RMK AO2 PK WND
         21028/1900 SLP153 T01500017
         
***** Yesterday's Observations (Above) *****


Back to Main Page
http://www.srh.noaa.gov/lzk/qfcst.php

USA.gov is the U.S. government's official web portal to all federal, state and local government web resources and services.